createdAt,value
2023-04-18T00:00:38.295Z,10.00
2023-04-18T00:03:07.050Z,9.77
2023-04-18T00:05:36.597Z,9.67
2023-04-18T00:08:05.692Z,10.00
2023-04-18T00:10:34.335Z,10.47
2023-04-18T00:13:03.965Z,10.23
2023-04-18T00:15:35.360Z,9.60
2023-04-18T00:18:05.905Z,9.97
2023-04-18T00:20:34.601Z,9.67
2023-04-18T00:23:03.237Z,9.17
2023-04-18T00:25:31.969Z,9.27
2023-04-18T00:28:00.585Z,9.57
2023-04-18T00:30:29.219Z,9.20
2023-04-18T00:32:59.211Z,9.57
2023-04-18T00:35:27.921Z,10.37
2023-04-18T00:37:56.573Z,9.70
2023-04-18T00:40:25.464Z,9.93
2023-04-18T00:42:54.058Z,9.40
2023-04-18T00:45:22.924Z,9.27
2023-04-18T00:47:51.580Z,8.83
2023-04-18T00:50:21.823Z,8.07
2023-04-18T00:52:50.545Z,9.70
2023-04-18T00:55:19.348Z,9.17
2023-04-18T00:57:48.087Z,9.07
2023-04-18T01:00:17.010Z,9.30
2023-04-18T01:02:45.835Z,10.37
2023-04-18T01:05:14.723Z,9.80
2023-04-18T01:07:45.395Z,9.70
2023-04-18T01:10:14.163Z,9.17
2023-04-18T01:12:42.862Z,9.40
2023-04-18T01:15:12.288Z,9.20
2023-04-18T01:17:41.016Z,9.00
2023-04-18T01:20:10.801Z,8.70
2023-04-18T01:22:39.411Z,8.70
2023-04-18T01:25:11.541Z,8.70
2023-04-18T01:27:40.173Z,9.13
2023-04-18T01:30:10.250Z,8.87
2023-04-18T01:32:38.890Z,8.37
2023-04-18T01:35:08.385Z,9.83
2023-04-18T01:37:37.017Z,9.10
2023-04-18T01:40:06.427Z,8.50
2023-04-18T01:42:36.437Z,7.50
2023-04-18T01:45:08.292Z,9.20
2023-04-18T01:47:36.919Z,8.07
2023-04-18T01:50:06.829Z,8.47
2023-04-18T01:52:35.421Z,8.00
2023-04-18T01:55:04.247Z,8.50
2023-04-18T01:57:36.543Z,8.43
2023-04-18T02:00:09.579Z,8.60
2023-04-18T02:02:38.420Z,7.67
2023-04-18T02:05:08.063Z,8.60
2023-04-18T02:07:36.781Z,9.40
2023-04-18T02:10:05.989Z,8.40
2023-04-18T02:12:34.982Z,8.07
2023-04-18T02:15:03.700Z,8.63
2023-04-18T02:17:35.510Z,8.90
2023-04-18T02:20:04.461Z,8.70
2023-04-18T02:22:33.135Z,8.47
2023-04-18T02:25:02.283Z,8.50
2023-04-18T02:27:30.894Z,8.40
2023-04-18T02:29:59.482Z,8.80
2023-04-18T02:32:28.083Z,8.20
2023-04-18T02:34:58.069Z,8.30
2023-04-18T02:37:26.823Z,8.20
2023-04-18T02:39:55.431Z,7.80
2023-04-18T02:42:24.049Z,7.87
2023-04-18T02:44:52.612Z,8.70
2023-04-18T02:47:22.560Z,8.50
2023-04-18T02:49:51.252Z,7.97
2023-04-18T02:52:21.238Z,7.90
2023-04-18T02:54:49.806Z,8.77
2023-04-18T02:57:18.539Z,8.00
2023-04-18T02:59:47.152Z,7.80
2023-04-18T03:02:15.971Z,7.87
2023-04-18T03:04:44.738Z,7.93
2023-04-18T03:07:13.363Z,7.50
2023-04-18T03:09:43.271Z,9.07
2023-04-18T03:12:11.882Z,8.57
2023-04-18T03:14:40.554Z,8.50
2023-04-18T03:17:09.165Z,8.53
2023-04-18T03:19:37.840Z,8.73
2023-04-18T03:22:06.647Z,8.50
2023-04-18T03:24:35.223Z,7.67
2023-04-18T03:27:05.240Z,7.67
2023-04-18T03:29:34.167Z,9.10
2023-04-18T03:32:02.798Z,8.60
2023-04-18T03:34:31.513Z,8.47
2023-04-18T03:37:00.126Z,8.33
2023-04-18T03:39:28.752Z,8.93
2023-04-18T03:41:57.312Z,9.20
2023-04-18T03:44:27.279Z,8.40
2023-04-18T03:46:57.244Z,9.07
2023-04-18T03:49:25.897Z,9.27
2023-04-18T03:51:54.545Z,8.93
2023-04-18T03:54:23.215Z,9.37
2023-04-18T03:56:52.312Z,8.73
2023-04-18T03:59:20.976Z,10.03
2023-04-18T04:01:50.917Z,9.17
2023-04-18T04:04:19.624Z,8.83
2023-04-18T04:06:48.366Z,10.43
2023-04-18T04:09:16.998Z,9.20
2023-04-18T04:11:46.170Z,8.60
2023-04-18T04:14:14.860Z,9.10
2023-04-18T04:16:43.647Z,8.87
2023-04-18T04:19:14.838Z,9.43
2023-04-18T04:21:43.459Z,8.47
2023-04-18T04:24:13.763Z,9.37
2023-04-18T04:26:43.269Z,9.40
2023-04-18T04:29:13.786Z,9.73
2023-04-18T04:31:42.459Z,9.30
2023-04-18T04:34:11.275Z,9.00
2023-04-18T04:36:43.077Z,9.37
2023-04-18T04:39:11.998Z,8.80
2023-04-18T04:41:40.688Z,9.97
2023-04-18T04:44:09.517Z,9.10
2023-04-18T04:46:40.155Z,10.30
2023-04-18T04:49:08.718Z,9.10
2023-04-18T04:51:37.345Z,9.53
2023-04-18T04:54:07.510Z,9.80
2023-04-18T04:56:36.715Z,8.70
2023-04-18T04:59:05.899Z,8.80
2023-04-18T05:01:34.588Z,9.80
2023-04-18T05:04:03.520Z,9.30
2023-04-18T05:06:32.471Z,9.00
2023-04-18T05:09:01.218Z,9.13
2023-04-18T05:11:31.202Z,9.17
2023-04-18T05:13:59.793Z,9.00
2023-04-18T05:16:28.443Z,9.80
2023-04-18T05:18:57.113Z,9.20
2023-04-18T05:21:26.157Z,8.70
2023-04-18T05:23:54.734Z,9.10
2023-04-18T05:26:23.503Z,9.60
2023-04-18T05:28:53.530Z,9.37
2023-04-18T05:31:22.908Z,11.00
2023-04-18T05:33:51.578Z,9.37
2023-04-18T05:36:20.210Z,9.67
2023-04-18T05:38:48.798Z,9.10
2023-04-18T05:41:17.428Z,9.80
2023-04-18T05:43:54.235Z,9.50
2023-04-18T05:46:32.264Z,9.60
2023-04-18T05:49:00.938Z,9.67
2023-04-18T05:51:29.502Z,9.47
2023-04-18T05:53:58.116Z,9.50
2023-04-18T05:56:26.839Z,9.87
2023-04-18T05:58:55.902Z,8.73
2023-04-18T06:01:24.610Z,9.60
2023-04-18T06:03:55.323Z,9.60
2023-04-18T06:06:24.122Z,10.00
2023-04-18T06:08:52.804Z,9.60
2023-04-18T06:11:21.591Z,10.83
2023-04-18T06:13:50.321Z,10.47
2023-04-18T06:16:19.807Z,9.93
2023-04-18T06:18:48.434Z,9.87
2023-04-18T06:21:18.410Z,10.97
2023-04-18T06:23:47.037Z,10.00
2023-04-18T06:26:15.850Z,9.77
2023-04-18T06:28:44.457Z,9.80
2023-04-18T06:31:13.199Z,10.73
2023-04-18T06:33:41.941Z,10.27
2023-04-18T06:36:10.734Z,9.90
2023-04-18T06:38:40.696Z,10.30
2023-04-18T06:41:09.339Z,10.20
2023-04-18T06:43:38.016Z,9.43
2023-04-18T06:46:06.875Z,9.80
2023-04-18T06:48:35.522Z,9.90
2023-04-18T06:51:04.166Z,9.90
2023-04-18T06:53:32.800Z,9.70
2023-04-18T06:56:02.889Z,9.53
2023-04-18T06:58:31.493Z,10.27
2023-04-18T07:01:00.169Z,10.00
2023-04-18T07:03:28.872Z,10.53
2023-04-18T07:05:57.527Z,10.13
2023-04-18T07:08:26.169Z,10.47
2023-04-18T07:10:54.857Z,9.77
2023-04-18T07:13:24.896Z,9.60
2023-04-18T07:15:53.523Z,9.60
2023-04-18T07:18:34.270Z,10.07
2023-04-18T07:21:08.041Z,9.40
2023-04-18T07:23:36.741Z,9.90
2023-04-18T07:26:05.787Z,9.60
2023-04-18T07:28:35.994Z,9.60
2023-04-18T07:31:04.845Z,10.90
2023-04-18T07:33:33.914Z,10.37
2023-04-18T07:36:03.030Z,10.17
2023-04-18T07:38:31.738Z,10.00
2023-04-18T07:41:02.050Z,10.87
2023-04-18T07:43:30.869Z,10.77
2023-04-18T07:46:01.111Z,10.67
2023-04-18T07:48:29.817Z,11.10
2023-04-18T07:50:58.617Z,10.97
2023-04-18T07:53:27.287Z,9.90
2023-04-18T07:55:56.313Z,11.00
2023-04-18T07:58:24.914Z,10.23
2023-04-18T08:00:53.535Z,10.37
2023-04-18T08:03:23.771Z,10.83
2023-04-18T08:05:52.531Z,10.90
2023-04-18T08:08:21.270Z,11.10
2023-04-18T08:10:49.948Z,11.07
2023-04-18T08:13:18.976Z,10.87
2023-04-18T08:15:48.051Z,11.27
2023-04-18T08:18:16.729Z,10.87
2023-04-18T08:20:46.691Z,11.27
2023-04-18T08:23:15.859Z,10.73
2023-04-18T08:25:44.517Z,10.23
2023-04-18T08:28:13.938Z,9.80
2023-04-18T08:30:43.135Z,10.50
2023-04-18T08:33:11.780Z,11.67
2023-04-18T08:35:40.895Z,11.07
2023-04-18T08:38:11.216Z,10.60
2023-04-18T08:40:39.892Z,10.90
2023-04-18T08:43:12.196Z,10.47
2023-04-18T08:45:41.118Z,11.53
2023-04-18T08:48:13.214Z,10.47
2023-04-18T08:50:42.008Z,10.87
2023-04-18T08:53:12.445Z,12.03
2023-04-18T08:55:42.106Z,10.37
2023-04-18T08:58:12.373Z,11.27
2023-04-18T09:00:41.690Z,10.30
2023-04-18T09:03:15.568Z,9.80
2023-04-18T09:05:46.877Z,10.43
2023-04-18T09:08:26.167Z,10.50
2023-04-18T09:10:54.801Z,10.60
2023-04-18T09:13:39.507Z,11.40
2023-04-18T09:16:08.293Z,11.67
2023-04-18T09:18:36.909Z,10.50
2023-04-18T09:21:18.530Z,10.67
2023-04-18T09:23:50.368Z,11.30
2023-04-18T09:26:25.149Z,10.67
2023-04-18T09:28:54.424Z,11.40
2023-04-18T09:31:23.294Z,11.27
2023-04-18T09:33:54.138Z,11.80
2023-04-18T09:36:24.382Z,9.93
2023-04-18T09:38:56.904Z,11.30
2023-04-18T09:41:27.020Z,11.57
2023-04-18T09:44:14.672Z,11.30
2023-04-18T09:46:47.121Z,9.90
2023-04-18T09:49:17.425Z,10.37
2023-04-18T09:51:46.836Z,9.57
2023-04-18T09:54:18.127Z,11.17
2023-04-18T09:56:47.978Z,10.30
2023-04-18T09:59:19.843Z,10.80
2023-04-18T10:01:50.630Z,10.10
2023-04-18T10:04:19.927Z,9.70
2023-04-18T10:06:48.692Z,11.03
2023-04-18T10:09:18.900Z,9.50
2023-04-18T10:11:47.751Z,9.47
2023-04-18T10:14:17.401Z,10.43
2023-04-18T10:16:48.632Z,10.50
2023-04-18T10:19:26.513Z,8.77
2023-04-18T10:21:56.145Z,9.00
2023-04-18T10:24:49.386Z,8.93
2023-04-18T10:27:19.428Z,8.50
2023-04-18T10:29:49.340Z,8.10
2023-04-18T10:32:23.316Z,7.43
2023-04-18T10:34:54.504Z,8.37
2023-04-18T10:37:23.108Z,7.70
2023-04-18T10:39:58.281Z,7.70
2023-04-18T10:43:00.930Z,8.27
2023-04-18T10:45:32.562Z,7.53
2023-04-18T10:48:24.127Z,7.00
2023-04-18T10:51:15.039Z,7.27
2023-04-18T10:53:50.906Z,7.40
2023-04-18T10:56:21.144Z,7.50
2023-04-18T10:58:52.010Z,7.17
2023-04-18T11:01:31.048Z,7.50
2023-04-18T11:04:01.376Z,7.47
2023-04-18T11:06:31.381Z,7.10
2023-04-18T11:09:13.713Z,6.80
2023-04-18T11:11:44.450Z,6.47
2023-04-18T11:14:13.405Z,6.33
2023-04-18T11:16:42.309Z,6.67
2023-04-18T11:19:21.534Z,6.00
2023-04-18T11:21:51.200Z,5.97
2023-04-18T11:24:23.944Z,6.23
2023-04-18T11:26:56.291Z,5.70
2023-04-18T11:29:25.132Z,6.07
2023-04-18T11:31:57.566Z,5.30
2023-04-18T11:34:30.382Z,5.73
2023-04-18T11:36:59.359Z,5.27
2023-04-18T11:39:28.114Z,5.53
2023-04-18T11:42:01.334Z,5.70
2023-04-18T11:44:30.035Z,5.40
2023-04-18T11:46:58.749Z,5.33
2023-04-18T11:49:28.400Z,5.80
2023-04-18T11:51:57.398Z,5.63
2023-04-18T11:54:42.983Z,5.87
2023-04-18T11:57:23.610Z,5.80
2023-04-18T11:59:53.517Z,5.33
2023-04-18T12:02:23.334Z,5.53
2023-04-18T12:04:54.033Z,5.90
2023-04-18T12:07:33.155Z,5.87
2023-04-18T12:10:02.150Z,5.00
2023-04-18T12:12:32.280Z,5.83
2023-04-18T12:15:02.333Z,5.30
2023-04-18T12:17:31.901Z,6.07
2023-04-18T12:20:05.597Z,6.20
2023-04-18T12:22:47.317Z,5.83
2023-04-18T12:25:26.161Z,5.70
2023-04-18T12:27:59.116Z,5.23
2023-04-18T12:30:30.164Z,5.87
2023-04-18T12:32:59.947Z,5.70
2023-04-18T12:35:29.871Z,4.97
2023-04-18T12:38:00.316Z,5.03
2023-04-18T12:40:30.096Z,5.20
2023-04-18T12:43:02.125Z,4.77
2023-04-18T12:45:32.166Z,4.53
2023-04-18T12:48:00.842Z,4.80
2023-04-18T12:50:29.600Z,4.73
2023-04-18T12:53:00.141Z,4.83
2023-04-18T12:55:29.498Z,4.40
2023-04-18T12:57:58.485Z,5.30
2023-04-18T13:00:30.590Z,4.60
2023-04-18T13:02:59.774Z,4.10
2023-04-18T13:05:33.073Z,3.60
2023-04-18T13:10:34.648Z,4.57
2023-04-18T13:13:03.382Z,3.90
2023-04-18T13:15:33.488Z,4.00
2023-04-18T13:18:05.188Z,4.50
2023-04-18T13:20:34.048Z,4.63
2023-04-18T13:23:03.268Z,4.20
2023-04-18T13:25:32.355Z,5.10
2023-04-18T13:28:01.350Z,3.90
2023-04-18T13:30:30.149Z,4.30
2023-04-18T13:33:00.326Z,5.20
2023-04-18T13:35:29.110Z,3.70
2023-04-18T13:37:57.756Z,4.23
2023-04-18T13:40:26.436Z,3.80
2023-04-18T13:42:55.078Z,4.33
2023-04-18T13:45:23.670Z,4.63
2023-04-18T13:47:52.361Z,3.83
2023-04-18T13:50:23.162Z,4.43
2023-04-18T13:52:52.020Z,3.77
2023-04-18T13:55:21.086Z,3.53
2023-04-18T13:57:49.691Z,3.47
2023-04-18T14:00:19.327Z,4.20
2023-04-18T14:02:48.068Z,3.90
2023-04-18T14:05:17.033Z,4.10
2023-04-18T14:07:48.516Z,3.93
2023-04-18T14:10:17.278Z,3.83
2023-04-18T14:12:45.947Z,4.00
2023-04-18T14:15:14.530Z,3.77
2023-04-18T14:17:45.501Z,3.83
2023-04-18T14:20:19.148Z,4.53
2023-04-18T14:22:53.036Z,3.77
2023-04-18T14:25:22.218Z,3.70
2023-04-18T14:28:05.163Z,4.80
2023-04-18T14:30:34.070Z,4.17
2023-04-18T14:33:02.769Z,4.33
2023-04-18T14:35:31.601Z,4.20
2023-04-18T14:38:01.576Z,3.60
2023-04-18T14:40:32.554Z,4.10
2023-04-18T14:43:01.663Z,3.70
2023-04-18T14:45:33.113Z,4.03
2023-04-18T14:48:01.960Z,4.10
2023-04-18T14:50:30.805Z,4.10
2023-04-18T14:53:01.087Z,4.30
2023-04-18T14:55:29.772Z,3.90
2023-04-18T14:57:58.350Z,4.00
2023-04-18T15:00:27.252Z,4.00
2023-04-18T15:02:56.514Z,4.30
2023-04-18T15:05:25.947Z,3.73
2023-04-18T15:07:56.022Z,3.80
2023-04-18T15:10:26.264Z,3.90
2023-04-18T15:12:54.944Z,3.37
2023-04-18T15:15:25.149Z,3.40
2023-04-18T15:17:53.913Z,3.50
2023-04-18T15:20:23.951Z,3.70
2023-04-18T15:22:52.759Z,3.40
2023-04-18T15:25:21.412Z,3.20
2023-04-18T15:27:51.434Z,3.40
2023-04-18T15:30:20.199Z,3.03
2023-04-18T15:32:49.069Z,3.50
2023-04-18T15:35:17.762Z,3.30
2023-04-18T15:37:46.422Z,3.60
2023-04-18T15:40:16.424Z,3.20
2023-04-18T15:42:45.502Z,3.30
2023-04-18T15:45:15.569Z,3.80
2023-04-18T15:47:44.288Z,3.40
2023-04-18T15:50:13.044Z,4.10
2023-04-18T15:52:41.972Z,3.87
2023-04-18T15:55:12.208Z,3.67
2023-04-18T15:57:41.157Z,4.23
2023-04-18T16:00:15.689Z,4.60
2023-04-18T16:02:46.241Z,3.13
2023-04-18T16:05:15.355Z,4.00
2023-04-18T16:07:44.427Z,3.60
2023-04-18T16:10:15.100Z,3.70
2023-04-18T16:12:43.804Z,3.73
2023-04-18T16:15:13.606Z,4.00
2023-04-18T16:17:42.311Z,4.10
2023-04-18T16:20:12.737Z,3.50
2023-04-18T16:22:41.365Z,4.13
2023-04-18T16:25:10.682Z,4.27
2023-04-18T16:27:39.446Z,4.80
2023-04-18T16:30:10.005Z,4.53
2023-04-18T16:32:39.056Z,4.20
2023-04-18T16:35:10.128Z,4.90
2023-04-18T16:37:41.021Z,4.17
2023-04-18T16:40:10.250Z,4.23
2023-04-18T16:42:39.820Z,4.93
2023-04-18T16:45:09.322Z,4.97
2023-04-18T16:47:38.379Z,4.50
2023-04-18T16:50:08.462Z,4.90
2023-04-18T16:52:37.101Z,4.87
2023-04-18T16:55:07.680Z,5.50
2023-04-18T16:57:36.350Z,5.00
2023-04-18T17:00:06.699Z,5.30
2023-04-18T17:02:35.791Z,4.03
2023-04-18T17:05:04.914Z,5.27
2023-04-18T17:07:33.644Z,5.57
2023-04-18T17:10:02.293Z,5.40
2023-04-18T17:12:32.352Z,5.50
2023-04-18T17:15:01.002Z,5.00
2023-04-18T17:17:29.607Z,5.10
2023-04-18T17:19:58.633Z,5.10
2023-04-18T17:22:27.252Z,5.10
2023-04-18T17:24:55.885Z,5.00
2023-04-18T17:27:24.563Z,4.47
2023-04-18T17:29:54.548Z,5.17
2023-04-18T17:32:23.570Z,5.00
2023-04-18T17:34:52.193Z,5.07
2023-04-18T17:37:22.353Z,4.43
2023-04-18T17:39:51.027Z,4.17
2023-04-18T17:42:21.026Z,4.93
2023-04-18T17:44:49.709Z,5.03
2023-04-18T17:47:19.975Z,4.90
2023-04-18T17:49:48.593Z,4.30
2023-04-18T17:52:17.918Z,4.83
2023-04-18T17:54:46.580Z,4.63
2023-04-18T17:57:15.257Z,5.20
2023-04-18T17:59:43.873Z,5.23
2023-04-18T18:02:12.856Z,4.97
2023-04-18T18:04:42.928Z,4.90
2023-04-18T18:07:11.708Z,5.30
2023-04-18T18:09:41.463Z,5.03
2023-04-18T18:12:10.708Z,5.37
2023-04-18T18:14:40.512Z,5.20
2023-04-18T18:17:09.418Z,5.00
2023-04-18T18:19:38.310Z,4.90
2023-04-18T18:22:08.413Z,5.03
2023-04-18T18:24:37.074Z,5.57
2023-04-18T18:27:06.056Z,4.40
2023-04-18T18:29:34.683Z,5.40
2023-04-18T18:32:03.351Z,4.90
2023-04-18T18:34:32.100Z,4.80
2023-04-18T18:37:00.863Z,5.40
2023-04-18T18:39:30.910Z,4.37
2023-04-18T18:41:59.543Z,4.53
2023-04-18T18:44:28.231Z,4.70
2023-04-18T18:46:57.582Z,5.40
2023-04-18T18:49:26.554Z,5.10
2023-04-18T18:51:55.271Z,4.37
2023-04-18T18:54:23.991Z,4.83
2023-04-18T18:56:53.997Z,5.07
2023-04-18T18:59:22.687Z,5.23
2023-04-18T19:01:51.349Z,45.47
2023-04-18T19:04:20.142Z,9.43
2023-04-18T19:06:49.134Z,5.50
2023-04-18T19:09:17.753Z,5.63
2023-04-18T19:11:46.369Z,5.20
2023-04-18T19:14:16.550Z,5.80
2023-04-18T19:16:45.334Z,5.43
2023-04-18T19:19:14.618Z,5.37
2023-04-18T19:21:45.812Z,5.60
2023-04-18T19:24:14.623Z,6.03
2023-04-18T19:26:43.355Z,5.40
2023-04-18T19:29:14.098Z,6.03
2023-04-18T19:31:44.688Z,6.17
2023-04-18T19:34:13.459Z,6.03
2023-04-18T19:36:42.253Z,5.87
2023-04-18T19:39:10.882Z,6.60
2023-04-18T19:41:39.645Z,6.77
2023-04-18T19:44:08.306Z,6.20
2023-04-18T19:46:36.974Z,6.07
2023-04-18T19:49:07.063Z,6.50
2023-04-18T19:51:35.685Z,6.40
2023-04-18T19:54:04.705Z,5.83
2023-04-18T19:56:33.335Z,5.40
2023-04-18T19:59:02.369Z,5.60
2023-04-18T20:01:31.253Z,6.30
2023-04-18T20:04:00.537Z,6.03
2023-04-18T20:06:31.632Z,5.77
2023-04-18T20:09:00.273Z,6.40
2023-04-18T20:11:28.870Z,6.20
2023-04-18T20:13:57.470Z,5.90
2023-04-18T20:16:26.178Z,6.00
2023-04-18T20:18:55.229Z,5.97
2023-04-18T20:21:23.910Z,6.30
2023-04-18T20:23:53.919Z,6.87
2023-04-18T20:26:22.540Z,6.67
2023-04-18T20:28:51.302Z,6.00
2023-04-18T20:31:19.998Z,5.97
2023-04-18T20:33:48.743Z,6.23
2023-04-18T20:36:18.418Z,6.50
2023-04-18T20:38:47.157Z,5.80
2023-04-18T20:41:20.728Z,5.90
2023-04-18T20:43:50.570Z,6.33
2023-04-18T20:46:19.218Z,6.73
2023-04-18T20:48:47.879Z,6.70
2023-04-18T20:51:16.836Z,6.40
2023-04-18T20:53:45.650Z,6.60
2023-04-18T20:56:14.323Z,6.67
2023-04-18T20:58:44.336Z,7.03
2023-04-18T21:01:12.990Z,5.90
2023-04-18T21:03:41.909Z,6.33
2023-04-18T21:06:10.895Z,6.37
2023-04-18T21:08:39.542Z,6.17
2023-04-18T21:11:08.422Z,6.00
2023-04-18T21:13:38.055Z,6.00
2023-04-18T21:16:10.227Z,6.20
2023-04-18T21:18:38.942Z,6.70
2023-04-18T21:21:07.847Z,6.40
2023-04-18T21:23:42.454Z,6.77
2023-04-18T21:26:12.844Z,6.43
2023-04-18T21:28:58.180Z,6.40
2023-04-18T21:31:30.561Z,5.73
2023-04-18T21:34:00.962Z,6.70
2023-04-18T21:36:30.622Z,6.23
2023-04-18T21:39:00.683Z,7.27
2023-04-18T21:41:29.382Z,6.90
2023-04-18T21:43:58.066Z,6.70
2023-04-18T21:46:28.184Z,7.40
2023-04-18T21:48:56.788Z,6.50
2023-04-18T21:51:25.420Z,6.13
2023-04-18T21:53:54.044Z,6.20
2023-04-18T21:56:22.734Z,7.40
2023-04-18T21:58:51.393Z,7.53
2023-04-18T22:01:20.070Z,7.83
2023-04-18T22:03:50.295Z,6.97
2023-04-18T22:06:20.726Z,7.10
2023-04-18T22:08:49.963Z,7.50
2023-04-18T22:11:18.966Z,7.10
2023-04-18T22:13:47.608Z,6.40
2023-04-18T22:16:16.363Z,6.13
2023-04-18T22:18:44.992Z,7.23
2023-04-18T22:21:14.925Z,6.00
2023-04-18T22:23:43.629Z,7.83
2023-04-18T22:26:12.227Z,6.83
2023-04-18T22:28:40.926Z,6.40
2023-04-18T22:31:09.664Z,6.23
2023-04-18T22:33:38.365Z,6.47
2023-04-18T22:36:07.615Z,7.50
2023-04-18T22:38:37.563Z,6.20
2023-04-18T22:41:06.409Z,6.40
2023-04-18T22:43:35.003Z,7.20
2023-04-18T22:46:03.844Z,7.13
2023-04-18T22:48:35.101Z,6.83
2023-04-18T22:51:03.825Z,6.50
2023-04-18T22:53:32.542Z,6.10
2023-04-18T22:56:02.495Z,7.07
2023-04-18T22:58:31.560Z,6.57
2023-04-18T23:01:00.523Z,6.40
2023-04-18T23:03:29.340Z,6.07
2023-04-18T23:05:58.058Z,6.47
2023-04-18T23:08:26.687Z,6.10
2023-04-18T23:10:55.422Z,7.47
2023-04-18T23:13:25.410Z,6.63
2023-04-18T23:15:54.066Z,6.50
2023-04-18T23:18:22.722Z,6.40
2023-04-18T23:20:51.278Z,6.80
2023-04-18T23:23:19.848Z,6.80
2023-04-18T23:25:48.484Z,7.57
2023-04-18T23:28:17.198Z,6.37
2023-04-18T23:30:48.038Z,7.10
2023-04-18T23:33:16.796Z,7.60
2023-04-18T23:35:45.545Z,7.20
2023-04-18T23:38:14.144Z,7.07
2023-04-18T23:40:42.771Z,7.70
2023-04-18T23:43:11.425Z,7.37
2023-04-18T23:45:40.082Z,7.87
2023-04-18T23:48:10.111Z,7.90
2023-04-18T23:50:38.723Z,8.13
2023-04-18T23:53:07.957Z,7.67
2023-04-18T23:55:36.576Z,7.73
2023-04-18T23:58:05.207Z,7.50
